sensor_id;sensor_type;location;lat;lon;timestamp;temperature;humidity
30304;DHT22;17112;48.636;10.152;2023-05-09T00:00:41;15.90;69.50
30304;DHT22;17112;48.636;10.152;2023-05-09T00:03:07;15.90;69.70
30304;DHT22;17112;48.636;10.152;2023-05-09T00:05:33;15.90;69.70
30304;DHT22;17112;48.636;10.152;2023-05-09T00:07:58;16.00;69.80
30304;DHT22;17112;48.636;10.152;2023-05-09T00:10:26;16.00;69.70
30304;DHT22;17112;48.636;10.152;2023-05-09T00:12:52;16.00;69.80
30304;DHT22;17112;48.636;10.152;2023-05-09T00:15:17;16.00;69.90
30304;DHT22;17112;48.636;10.152;2023-05-09T00:17:44;16.00;69.70
30304;DHT22;17112;48.636;10.152;2023-05-09T00:20:10;16.00;69.50
30304;DHT22;17112;48.636;10.152;2023-05-09T00:22:38;16.00;69.50
30304;DHT22;17112;48.636;10.152;2023-05-09T00:25:08;16.00;69.60
30304;DHT22;17112;48.636;10.152;2023-05-09T00:27:34;16.00;69.50
30304;DHT22;17112;48.636;10.152;2023-05-09T00:30:00;15.90;69.30
30304;DHT22;17112;48.636;10.152;2023-05-09T00:32:26;15.90;69.40
30304;DHT22;17112;48.636;10.152;2023-05-09T00:34:53;15.90;69.40
30304;DHT22;17112;48.636;10.152;2023-05-09T00:37:19;15.90;69.40
30304;DHT22;17112;48.636;10.152;2023-05-09T00:39:48;15.90;69.50
30304;DHT22;17112;48.636;10.152;2023-05-09T00:42:14;15.90;69.60
30304;DHT22;17112;48.636;10.152;2023-05-09T00:44:39;15.80;69.50
30304;DHT22;17112;48.636;10.152;2023-05-09T00:47:06;15.80;69.50
30304;DHT22;17112;48.636;10.152;2023-05-09T00:49:32;15.80;69.50
30304;DHT22;17112;48.636;10.152;2023-05-09T00:51:58;15.80;69.60
30304;DHT22;17112;48.636;10.152;2023-05-09T00:54:25;15.80;69.60
30304;DHT22;17112;48.636;10.152;2023-05-09T00:56:51;15.70;69.60
30304;DHT22;17112;48.636;10.152;2023-05-09T00:59:17;15.70;69.60
30304;DHT22;17112;48.636;10.152;2023-05-09T01:01:44;15.70;69.50
30304;DHT22;17112;48.636;10.152;2023-05-09T01:04:11;15.60;69.50
30304;DHT22;17112;48.636;10.152;2023-05-09T01:14:40;15.50;69.40
30304;DHT22;17112;48.636;10.152;2023-05-09T01:17:33;15.50;69.40
30304;DHT22;17112;48.636;10.152;2023-05-09T01:20:13;15.40;69.70
30304;DHT22;17112;48.636;10.152;2023-05-09T01:22:47;15.40;69.40
30304;DHT22;17112;48.636;10.152;2023-05-09T01:28:47;15.30;69.40
30304;DHT22;17112;48.636;10.152;2023-05-09T01:31:16;15.30;69.30
30304;DHT22;17112;48.636;10.152;2023-05-09T01:33:45;15.20;68.90
30304;DHT22;17112;48.636;10.152;2023-05-09T01:36:14;15.20;69.10
30304;DHT22;17112;48.636;10.152;2023-05-09T01:38:43;15.10;69.20
30304;DHT22;17112;48.636;10.152;2023-05-09T01:41:10;15.10;69.30
30304;DHT22;17112;48.636;10.152;2023-05-09T01:43:37;15.00;69.30
30304;DHT22;17112;48.636;10.152;2023-05-09T01:46:04;15.00;69.30
30304;DHT22;17112;48.636;10.152;2023-05-09T01:48:32;15.00;69.30
30304;DHT22;17112;48.636;10.152;2023-05-09T01:50:59;14.90;69.40
30304;DHT22;17112;48.636;10.152;2023-05-09T01:53:27;14.90;69.40
30304;DHT22;17112;48.636;10.152;2023-05-09T01:55:54;14.80;69.30
30304;DHT22;17112;48.636;10.152;2023-05-09T01:58:21;14.80;69.30
30304;DHT22;17112;48.636;10.152;2023-05-09T02:00:49;14.80;69.30
30304;DHT22;17112;48.636;10.152;2023-05-09T02:03:15;14.70;69.30
30304;DHT22;17112;48.636;10.152;2023-05-09T02:05:42;14.70;69.20
30304;DHT22;17112;48.636;10.152;2023-05-09T02:08:08;14.70;69.30
30304;DHT22;17112;48.636;10.152;2023-05-09T02:10:35;14.60;69.20
30304;DHT22;17112;48.636;10.152;2023-05-09T02:13:02;14.60;69.30
30304;DHT22;17112;48.636;10.152;2023-05-09T02:15:28;14.50;69.40
30304;DHT22;17112;48.636;10.152;2023-05-09T02:17:54;14.40;69.40
30304;DHT22;17112;48.636;10.152;2023-05-09T02:20:21;14.40;69.70
30304;DHT22;17112;48.636;10.152;2023-05-09T02:22:46;14.40;69.90
30304;DHT22;17112;48.636;10.152;2023-05-09T02:25:12;14.30;69.90
30304;DHT22;17112;48.636;10.152;2023-05-09T02:27:44;14.30;70.10
30304;DHT22;17112;48.636;10.152;2023-05-09T02:30:18;14.30;70.20
30304;DHT22;17112;48.636;10.152;2023-05-09T02:32:48;14.30;70.30
30304;DHT22;17112;48.636;10.152;2023-05-09T02:35:16;14.30;70.20
30304;DHT22;17112;48.636;10.152;2023-05-09T02:37:44;14.30;70.20
30304;DHT22;17112;48.636;10.152;2023-05-09T02:40:10;14.20;70.20
30304;DHT22;17112;48.636;10.152;2023-05-09T02:42:36;14.20;70.80
30304;DHT22;17112;48.636;10.152;2023-05-09T02:45:02;14.20;70.20
30304;DHT22;17112;48.636;10.152;2023-05-09T02:47:28;14.20;70.20
30304;DHT22;17112;48.636;10.152;2023-05-09T02:49:53;14.20;70.40
30304;DHT22;17112;48.636;10.152;2023-05-09T02:52:19;14.10;70.40
30304;DHT22;17112;48.636;10.152;2023-05-09T02:54:46;14.10;70.50
30304;DHT22;17112;48.636;10.152;2023-05-09T02:57:12;14.10;70.60
30304;DHT22;17112;48.636;10.152;2023-05-09T02:59:38;14.10;70.60
30304;DHT22;17112;48.636;10.152;2023-05-09T03:02:03;14.10;70.70
30304;DHT22;17112;48.636;10.152;2023-05-09T03:04:29;14.10;70.80
30304;DHT22;17112;48.636;10.152;2023-05-09T03:06:55;14.10;70.80
30304;DHT22;17112;48.636;10.152;2023-05-09T03:09:21;14.10;70.70
30304;DHT22;17112;48.636;10.152;2023-05-09T03:11:46;14.10;70.80
30304;DHT22;17112;48.636;10.152;2023-05-09T03:14:12;14.10;70.80
30304;DHT22;17112;48.636;10.152;2023-05-09T03:16:39;14.10;70.70
30304;DHT22;17112;48.636;10.152;2023-05-09T03:19:05;14.10;70.80
30304;DHT22;17112;48.636;10.152;2023-05-09T03:21:31;14.10;70.70
30304;DHT22;17112;48.636;10.152;2023-05-09T03:23:57;14.10;70.70
30304;DHT22;17112;48.636;10.152;2023-05-09T03:26:23;14.00;70.60
30304;DHT22;17112;48.636;10.152;2023-05-09T03:28:48;14.00;70.70
30304;DHT22;17112;48.636;10.152;2023-05-09T03:31:14;14.10;70.70
30304;DHT22;17112;48.636;10.152;2023-05-09T03:33:40;14.00;70.70
30304;DHT22;17112;48.636;10.152;2023-05-09T03:36:06;14.00;70.70
30304;DHT22;17112;48.636;10.152;2023-05-09T03:38:32;14.00;70.70
30304;DHT22;17112;48.636;10.152;2023-05-09T03:40:57;14.20;71.00
30304;DHT22;17112;48.636;10.152;2023-05-09T03:43:23;14.00;70.80
30304;DHT22;17112;48.636;10.152;2023-05-09T03:45:49;14.00;70.90
30304;DHT22;17112;48.636;10.152;2023-05-09T03:48:14;14.00;70.90
30304;DHT22;17112;48.636;10.152;2023-05-09T03:50:40;14.00;70.80
30304;DHT22;17112;48.636;10.152;2023-05-09T03:53:06;14.00;70.60
30304;DHT22;17112;48.636;10.152;2023-05-09T03:55:32;14.00;70.70
30304;DHT22;17112;48.636;10.152;2023-05-09T03:57:57;13.90;70.80
30304;DHT22;17112;48.636;10.152;2023-05-09T04:00:23;13.90;70.90
30304;DHT22;17112;48.636;10.152;2023-05-09T04:02:51;13.90;70.80
30304;DHT22;17112;48.636;10.152;2023-05-09T04:05:17;13.90;70.90
30304;DHT22;17112;48.636;10.152;2023-05-09T04:07:43;13.90;71.00
30304;DHT22;17112;48.636;10.152;2023-05-09T04:10:09;13.90;71.00
30304;DHT22;17112;48.636;10.152;2023-05-09T04:12:35;13.90;71.00
30304;DHT22;17112;48.636;10.152;2023-05-09T04:15:00;13.90;71.00
30304;DHT22;17112;48.636;10.152;2023-05-09T04:17:26;14.00;71.10
30304;DHT22;17112;48.636;10.152;2023-05-09T04:19:52;14.00;71.10
30304;DHT22;17112;48.636;10.152;2023-05-09T04:22:17;14.00;70.90
30304;DHT22;17112;48.636;10.152;2023-05-09T04:24:43;14.00;70.90
30304;DHT22;17112;48.636;10.152;2023-05-09T04:27:09;14.10;71.00
30304;DHT22;17112;48.636;10.152;2023-05-09T04:29:34;14.10;70.70
30304;DHT22;17112;48.636;10.152;2023-05-09T04:32:01;14.10;70.50
30304;DHT22;17112;48.636;10.152;2023-05-09T04:34:27;14.10;70.50
30304;DHT22;17112;48.636;10.152;2023-05-09T04:36:54;14.10;70.40
30304;DHT22;17112;48.636;10.152;2023-05-09T04:39:20;14.20;70.40
30304;DHT22;17112;48.636;10.152;2023-05-09T04:41:46;14.20;70.40
30304;DHT22;17112;48.636;10.152;2023-05-09T04:44:16;14.20;70.40
30304;DHT22;17112;48.636;10.152;2023-05-09T04:46:41;14.30;70.50
30304;DHT22;17112;48.636;10.152;2023-05-09T04:49:08;14.30;70.50
30304;DHT22;17112;48.636;10.152;2023-05-09T04:51:33;14.30;70.40
30304;DHT22;17112;48.636;10.152;2023-05-09T04:53:59;14.30;70.50
30304;DHT22;17112;48.636;10.152;2023-05-09T04:56:25;14.30;70.40
30304;DHT22;17112;48.636;10.152;2023-05-09T04:58:51;14.40;71.00
30304;DHT22;17112;48.636;10.152;2023-05-09T05:01:17;14.40;70.30
30304;DHT22;17112;48.636;10.152;2023-05-09T05:03:43;14.50;70.30
30304;DHT22;17112;48.636;10.152;2023-05-09T05:06:10;14.50;70.00
30304;DHT22;17112;48.636;10.152;2023-05-09T05:08:36;14.50;70.00
30304;DHT22;17112;48.636;10.152;2023-05-09T05:11:01;14.50;69.80
30304;DHT22;17112;48.636;10.152;2023-05-09T05:13:27;14.60;69.70
30304;DHT22;17112;48.636;10.152;2023-05-09T05:15:53;14.60;69.40
30304;DHT22;17112;48.636;10.152;2023-05-09T05:18:20;14.60;69.10
30304;DHT22;17112;48.636;10.152;2023-05-09T05:20:45;14.70;69.10
30304;DHT22;17112;48.636;10.152;2023-05-09T05:23:11;14.70;68.90
30304;DHT22;17112;48.636;10.152;2023-05-09T05:25:37;14.70;68.60
30304;DHT22;17112;48.636;10.152;2023-05-09T05:28:03;14.70;68.40
30304;DHT22;17112;48.636;10.152;2023-05-09T05:30:29;14.70;68.40
30304;DHT22;17112;48.636;10.152;2023-05-09T05:32:54;14.70;68.20
30304;DHT22;17112;48.636;10.152;2023-05-09T05:35:20;14.70;68.20
30304;DHT22;17112;48.636;10.152;2023-05-09T05:37:48;14.70;68.00
30304;DHT22;17112;48.636;10.152;2023-05-09T05:40:13;14.70;68.20
30304;DHT22;17112;48.636;10.152;2023-05-09T05:42:39;14.70;68.10
30304;DHT22;17112;48.636;10.152;2023-05-09T05:45:05;14.80;68.00
30304;DHT22;17112;48.636;10.152;2023-05-09T05:47:32;14.80;68.00
30304;DHT22;17112;48.636;10.152;2023-05-09T05:50:02;14.80;67.90
30304;DHT22;17112;48.636;10.152;2023-05-09T05:52:28;14.80;67.60
30304;DHT22;17112;48.636;10.152;2023-05-09T05:54:54;14.80;67.70
30304;DHT22;17112;48.636;10.152;2023-05-09T05:57:20;14.90;67.60
30304;DHT22;17112;48.636;10.152;2023-05-09T05:59:46;14.90;67.40
30304;DHT22;17112;48.636;10.152;2023-05-09T06:02:13;14.90;67.30
30304;DHT22;17112;48.636;10.152;2023-05-09T06:04:39;14.90;66.70
30304;DHT22;17112;48.636;10.152;2023-05-09T06:07:05;14.90;66.80
30304;DHT22;17112;48.636;10.152;2023-05-09T06:09:31;14.90;66.80
30304;DHT22;17112;48.636;10.152;2023-05-09T06:11:56;14.90;66.80
30304;DHT22;17112;48.636;10.152;2023-05-09T06:14:24;14.90;66.90
30304;DHT22;17112;48.636;10.152;2023-05-09T06:16:50;14.90;66.90
30304;DHT22;17112;48.636;10.152;2023-05-09T06:19:16;15.00;67.00
30304;DHT22;17112;48.636;10.152;2023-05-09T06:21:43;15.00;66.90
30304;DHT22;17112;48.636;10.152;2023-05-09T06:24:08;15.00;66.80
30304;DHT22;17112;48.636;10.152;2023-05-09T06:26:34;15.00;66.70
30304;DHT22;17112;48.636;10.152;2023-05-09T06:29:00;15.00;66.60
30304;DHT22;17112;48.636;10.152;2023-05-09T06:31:26;15.10;66.60
30304;DHT22;17112;48.636;10.152;2023-05-09T06:33:52;15.10;66.40
30304;DHT22;17112;48.636;10.152;2023-05-09T06:36:17;15.10;66.20
30304;DHT22;17112;48.636;10.152;2023-05-09T06:38:43;15.10;66.30
30304;DHT22;17112;48.636;10.152;2023-05-09T06:41:09;15.10;66.20
30304;DHT22;17112;48.636;10.152;2023-05-09T06:43:34;15.20;66.10
30304;DHT22;17112;48.636;10.152;2023-05-09T06:46:00;15.20;66.00
30304;DHT22;17112;48.636;10.152;2023-05-09T06:48:26;15.30;66.50
30304;DHT22;17112;48.636;10.152;2023-05-09T06:50:53;15.30;66.50
30304;DHT22;17112;48.636;10.152;2023-05-09T06:53:19;15.40;66.50
30304;DHT22;17112;48.636;10.152;2023-05-09T06:55:45;15.50;66.30
30304;DHT22;17112;48.636;10.152;2023-05-09T06:58:11;15.60;66.10
30304;DHT22;17112;48.636;10.152;2023-05-09T07:00:36;15.70;66.10
30304;DHT22;17112;48.636;10.152;2023-05-09T07:03:03;15.80;66.00
30304;DHT22;17112;48.636;10.152;2023-05-09T07:05:32;16.00;65.70
30304;DHT22;17112;48.636;10.152;2023-05-09T07:07:57;16.10;66.30
30304;DHT22;17112;48.636;10.152;2023-05-09T07:10:23;16.30;65.20
30304;DHT22;17112;48.636;10.152;2023-05-09T07:12:49;16.50;64.80
30304;DHT22;17112;48.636;10.152;2023-05-09T07:15:15;16.60;64.20
30304;DHT22;17112;48.636;10.152;2023-05-09T07:17:41;16.70;64.30
30304;DHT22;17112;48.636;10.152;2023-05-09T07:20:06;16.90;64.30
30304;DHT22;17112;48.636;10.152;2023-05-09T07:22:32;17.00;63.80
30304;DHT22;17112;48.636;10.152;2023-05-09T07:24:58;17.20;63.70
30304;DHT22;17112;48.636;10.152;2023-05-09T07:27:26;17.30;63.40
30304;DHT22;17112;48.636;10.152;2023-05-09T07:29:51;17.50;63.10
30304;DHT22;17112;48.636;10.152;2023-05-09T07:32:18;17.60;62.60
30304;DHT22;17112;48.636;10.152;2023-05-09T07:34:43;17.80;62.30
30304;DHT22;17112;48.636;10.152;2023-05-09T07:37:09;17.90;62.50
30304;DHT22;17112;48.636;10.152;2023-05-09T07:39:35;18.00;62.00
30304;DHT22;17112;48.636;10.152;2023-05-09T07:42:01;18.20;61.90
30304;DHT22;17112;48.636;10.152;2023-05-09T07:44:26;18.30;61.10
30304;DHT22;17112;48.636;10.152;2023-05-09T07:46:52;18.40;61.30
30304;DHT22;17112;48.636;10.152;2023-05-09T07:49:20;18.50;61.00
30304;DHT22;17112;48.636;10.152;2023-05-09T07:51:46;18.70;60.40
30304;DHT22;17112;48.636;10.152;2023-05-09T07:54:11;18.80;60.40
30304;DHT22;17112;48.636;10.152;2023-05-09T07:56:37;18.90;60.70
30304;DHT22;17112;48.636;10.152;2023-05-09T07:59:03;19.00;60.70
30304;DHT22;17112;48.636;10.152;2023-05-09T08:01:28;19.10;60.10
30304;DHT22;17112;48.636;10.152;2023-05-09T08:03:54;19.20;60.00
30304;DHT22;17112;48.636;10.152;2023-05-09T08:06:19;19.30;59.60
30304;DHT22;17112;48.636;10.152;2023-05-09T08:08:45;19.40;59.70
30304;DHT22;17112;48.636;10.152;2023-05-09T08:11:11;19.50;59.30
30304;DHT22;17112;48.636;10.152;2023-05-09T08:13:36;19.50;59.30
30304;DHT22;17112;48.636;10.152;2023-05-09T08:16:02;19.60;59.00
30304;DHT22;17112;48.636;10.152;2023-05-09T08:18:28;19.70;59.00
30304;DHT22;17112;48.636;10.152;2023-05-09T08:20:54;19.70;58.60
30304;DHT22;17112;48.636;10.152;2023-05-09T08:23:19;19.80;58.90
30304;DHT22;17112;48.636;10.152;2023-05-09T08:25:45;19.90;58.70
30304;DHT22;17112;48.636;10.152;2023-05-09T08:28:11;20.00;58.80
30304;DHT22;17112;48.636;10.152;2023-05-09T08:30:36;20.00;58.40
30304;DHT22;17112;48.636;10.152;2023-05-09T08:33:02;20.10;57.90
30304;DHT22;17112;48.636;10.152;2023-05-09T08:35:28;20.10;58.20
30304;DHT22;17112;48.636;10.152;2023-05-09T08:37:53;20.20;58.30
30304;DHT22;17112;48.636;10.152;2023-05-09T08:40:19;20.30;58.10
30304;DHT22;17112;48.636;10.152;2023-05-09T08:42:46;20.30;58.00
30304;DHT22;17112;48.636;10.152;2023-05-09T08:45:13;20.40;57.90
30304;DHT22;17112;48.636;10.152;2023-05-09T08:47:39;20.50;58.10
30304;DHT22;17112;48.636;10.152;2023-05-09T08:50:07;20.60;57.60
30304;DHT22;17112;48.636;10.152;2023-05-09T08:52:34;20.70;57.90
30304;DHT22;17112;48.636;10.152;2023-05-09T08:55:01;20.80;57.10
30304;DHT22;17112;48.636;10.152;2023-05-09T08:57:33;20.90;57.30
30304;DHT22;17112;48.636;10.152;2023-05-09T09:00:00;20.90;56.80
30304;DHT22;17112;48.636;10.152;2023-05-09T09:02:25;21.00;56.90
30304;DHT22;17112;48.636;10.152;2023-05-09T09:04:53;21.10;56.90
30304;DHT22;17112;48.636;10.152;2023-05-09T09:07:19;21.20;57.20
30304;DHT22;17112;48.636;10.152;2023-05-09T09:09:46;21.30;57.60
30304;DHT22;17112;48.636;10.152;2023-05-09T09:12:14;21.40;57.40
30304;DHT22;17112;48.636;10.152;2023-05-09T09:14:45;21.50;56.80
30304;DHT22;17112;48.636;10.152;2023-05-09T09:17:14;21.60;57.00
30304;DHT22;17112;48.636;10.152;2023-05-09T09:19:43;21.70;57.10
30304;DHT22;17112;48.636;10.152;2023-05-09T09:22:12;21.80;56.70
30304;DHT22;17112;48.636;10.152;2023-05-09T09:24:40;22.00;56.30
30304;DHT22;17112;48.636;10.152;2023-05-09T09:27:06;22.10;56.00
30304;DHT22;17112;48.636;10.152;2023-05-09T09:29:32;22.10;55.30
30304;DHT22;17112;48.636;10.152;2023-05-09T09:32:02;22.10;54.70
30304;DHT22;17112;48.636;10.152;2023-05-09T09:34:28;22.20;54.80
30304;DHT22;17112;48.636;10.152;2023-05-09T09:36:53;22.20;54.70
30304;DHT22;17112;48.636;10.152;2023-05-09T09:39:19;22.20;55.20
30304;DHT22;17112;48.636;10.152;2023-05-09T09:41:46;22.30;55.00
30304;DHT22;17112;48.636;10.152;2023-05-09T09:44:19;22.30;54.90
30304;DHT22;17112;48.636;10.152;2023-05-09T09:46:48;22.40;54.10
30304;DHT22;17112;48.636;10.152;2023-05-09T09:49:19;22.40;54.50
30304;DHT22;17112;48.636;10.152;2023-05-09T09:51:51;22.50;54.60
30304;DHT22;17112;48.636;10.152;2023-05-09T09:54:18;22.60;54.00
30304;DHT22;17112;48.636;10.152;2023-05-09T09:56:50;22.60;54.20
30304;DHT22;17112;48.636;10.152;2023-05-09T09:59:20;22.70;53.50
30304;DHT22;17112;48.636;10.152;2023-05-09T10:04:36;22.80;52.80
30304;DHT22;17112;48.636;10.152;2023-05-09T10:07:07;22.80;52.80
30304;DHT22;17112;48.636;10.152;2023-05-09T10:09:35;22.80;53.40
30304;DHT22;17112;48.636;10.152;2023-05-09T10:12:07;22.80;53.10
30304;DHT22;17112;48.636;10.152;2023-05-09T10:14:35;22.90;52.10
30304;DHT22;17112;48.636;10.152;2023-05-09T10:17:02;22.90;52.80
30304;DHT22;17112;48.636;10.152;2023-05-09T10:19:29;23.00;52.70
30304;DHT22;17112;48.636;10.152;2023-05-09T10:22:07;23.10;52.40
30304;DHT22;17112;48.636;10.152;2023-05-09T10:24:40;23.10;52.20
30304;DHT22;17112;48.636;10.152;2023-05-09T10:27:09;23.20;51.70
30304;DHT22;17112;48.636;10.152;2023-05-09T10:29:50;23.20;51.60
30304;DHT22;17112;48.636;10.152;2023-05-09T10:32:27;23.30;50.80
30304;DHT22;17112;48.636;10.152;2023-05-09T10:35:01;23.30;51.20
30304;DHT22;17112;48.636;10.152;2023-05-09T10:37:29;23.40;51.30
30304;DHT22;17112;48.636;10.152;2023-05-09T10:39:56;23.40;51.80
30304;DHT22;17112;48.636;10.152;2023-05-09T10:42:22;23.40;51.50
30304;DHT22;17112;48.636;10.152;2023-05-09T10:44:51;23.50;51.50
30304;DHT22;17112;48.636;10.152;2023-05-09T10:47:18;23.50;50.90
30304;DHT22;17112;48.636;10.152;2023-05-09T10:49:44;23.60;51.10
30304;DHT22;17112;48.636;10.152;2023-05-09T10:52:10;23.60;50.80
30304;DHT22;17112;48.636;10.152;2023-05-09T10:54:37;23.70;51.10
30304;DHT22;17112;48.636;10.152;2023-05-09T10:57:02;23.70;51.10
30304;DHT22;17112;48.636;10.152;2023-05-09T10:59:40;23.80;50.80
30304;DHT22;17112;48.636;10.152;2023-05-09T11:02:15;23.80;50.70
30304;DHT22;17112;48.636;10.152;2023-05-09T11:04:43;23.90;51.00
30304;DHT22;17112;48.636;10.152;2023-05-09T11:07:24;23.90;51.10
30304;DHT22;17112;48.636;10.152;2023-05-09T11:12:56;24.10;50.70
30304;DHT22;17112;48.636;10.152;2023-05-09T11:15:23;24.20;49.20
30304;DHT22;17112;48.636;10.152;2023-05-09T11:18:04;24.30;51.00
30304;DHT22;17112;48.636;10.152;2023-05-09T11:20:33;24.30;50.20
30304;DHT22;17112;48.636;10.152;2023-05-09T11:23:00;24.40;50.90
30304;DHT22;17112;48.636;10.152;2023-05-09T11:25:28;24.40;50.80
30304;DHT22;17112;48.636;10.152;2023-05-09T11:27:59;24.50;50.50
30304;DHT22;17112;48.636;10.152;2023-05-09T11:30:38;24.60;51.10
30304;DHT22;17112;48.636;10.152;2023-05-09T11:33:05;24.70;51.00
30304;DHT22;17112;48.636;10.152;2023-05-09T11:35:31;24.80;51.00
30304;DHT22;17112;48.636;10.152;2023-05-09T11:38:05;24.90;50.60
30304;DHT22;17112;48.636;10.152;2023-05-09T11:40:32;25.00;49.40
30304;DHT22;17112;48.636;10.152;2023-05-09T11:42:59;25.00;50.00
30304;DHT22;17112;48.636;10.152;2023-05-09T11:45:29;25.10;49.80
30304;DHT22;17112;48.636;10.152;2023-05-09T11:47:56;25.10;49.20
30304;DHT22;17112;48.636;10.152;2023-05-09T11:50:22;25.10;49.30
30304;DHT22;17112;48.636;10.152;2023-05-09T11:52:48;25.10;49.40
30304;DHT22;17112;48.636;10.152;2023-05-09T11:55:19;25.10;49.60
30304;DHT22;17112;48.636;10.152;2023-05-09T11:57:48;25.10;49.40
30304;DHT22;17112;48.636;10.152;2023-05-09T12:00:16;25.10;49.20
30304;DHT22;17112;48.636;10.152;2023-05-09T12:02:43;25.10;49.10
30304;DHT22;17112;48.636;10.152;2023-05-09T12:05:12;25.30;49.10
30304;DHT22;17112;48.636;10.152;2023-05-09T12:07:38;25.10;48.60
30304;DHT22;17112;48.636;10.152;2023-05-09T12:10:08;25.10;49.30
30304;DHT22;17112;48.636;10.152;2023-05-09T12:12:47;25.20;49.80
30304;DHT22;17112;48.636;10.152;2023-05-09T12:15:14;25.30;49.40
30304;DHT22;17112;48.636;10.152;2023-05-09T12:17:43;25.30;50.10
30304;DHT22;17112;48.636;10.152;2023-05-09T12:20:09;25.40;49.50
30304;DHT22;17112;48.636;10.152;2023-05-09T12:22:36;25.40;49.30
30304;DHT22;17112;48.636;10.152;2023-05-09T12:25:05;25.50;49.00
30304;DHT22;17112;48.636;10.152;2023-05-09T12:27:36;25.40;48.10
30304;DHT22;17112;48.636;10.152;2023-05-09T12:30:07;25.40;48.90
30304;DHT22;17112;48.636;10.152;2023-05-09T12:32:35;25.40;48.20
30304;DHT22;17112;48.636;10.152;2023-05-09T12:35:02;25.40;48.80
30304;DHT22;17112;48.636;10.152;2023-05-09T12:37:30;25.50;48.70
30304;DHT22;17112;48.636;10.152;2023-05-09T12:40:09;25.50;48.00
30304;DHT22;17112;48.636;10.152;2023-05-09T12:42:43;25.50;48.70
30304;DHT22;17112;48.636;10.152;2023-05-09T12:45:10;25.60;48.70
30304;DHT22;17112;48.636;10.152;2023-05-09T12:47:36;25.60;48.00
30304;DHT22;17112;48.636;10.152;2023-05-09T12:50:04;25.60;48.70
30304;DHT22;17112;48.636;10.152;2023-05-09T12:52:38;25.70;48.80
30304;DHT22;17112;48.636;10.152;2023-05-09T12:55:06;25.70;47.70
30304;DHT22;17112;48.636;10.152;2023-05-09T12:57:32;25.80;47.80
30304;DHT22;17112;48.636;10.152;2023-05-09T12:59:58;25.80;47.40
30304;DHT22;17112;48.636;10.152;2023-05-09T13:02:26;25.80;47.10
30304;DHT22;17112;48.636;10.152;2023-05-09T13:05:11;25.80;47.70
30304;DHT22;17112;48.636;10.152;2023-05-09T13:07:39;25.90;47.70
30304;DHT22;17112;48.636;10.152;2023-05-09T13:10:16;26.00;47.90
30304;DHT22;17112;48.636;10.152;2023-05-09T13:12:49;26.00;46.70
30304;DHT22;17112;48.636;10.152;2023-05-09T13:15:17;26.00;47.40
30304;DHT22;17112;48.636;10.152;2023-05-09T13:17:50;26.00;47.20
30304;DHT22;17112;48.636;10.152;2023-05-09T13:20:16;26.10;47.40
30304;DHT22;17112;48.636;10.152;2023-05-09T13:22:43;26.20;47.60
30304;DHT22;17112;48.636;10.152;2023-05-09T13:25:10;26.30;46.90
30304;DHT22;17112;48.636;10.152;2023-05-09T13:27:36;26.40;47.30
30304;DHT22;17112;48.636;10.152;2023-05-09T13:30:02;26.40;46.40
30304;DHT22;17112;48.636;10.152;2023-05-09T13:32:28;26.50;46.00
30304;DHT22;17112;48.636;10.152;2023-05-09T13:34:54;26.50;46.10
30304;DHT22;17112;48.636;10.152;2023-05-09T13:37:19;26.60;46.40
30304;DHT22;17112;48.636;10.152;2023-05-09T13:39:46;26.60;46.60
30304;DHT22;17112;48.636;10.152;2023-05-09T13:42:12;26.70;46.30
30304;DHT22;17112;48.636;10.152;2023-05-09T13:44:38;26.70;45.80
30304;DHT22;17112;48.636;10.152;2023-05-09T13:47:03;26.70;45.60
30304;DHT22;17112;48.636;10.152;2023-05-09T13:49:32;26.70;46.00
30304;DHT22;17112;48.636;10.152;2023-05-09T13:51:58;26.70;45.70
30304;DHT22;17112;48.636;10.152;2023-05-09T13:54:24;26.80;46.10
30304;DHT22;17112;48.636;10.152;2023-05-09T13:56:51;26.90;46.20
30304;DHT22;17112;48.636;10.152;2023-05-09T13:59:17;27.00;45.50
30304;DHT22;17112;48.636;10.152;2023-05-09T14:01:43;27.10;45.60
30304;DHT22;17112;48.636;10.152;2023-05-09T14:04:08;27.10;45.10
30304;DHT22;17112;48.636;10.152;2023-05-09T14:06:34;27.20;45.30
30304;DHT22;17112;48.636;10.152;2023-05-09T14:09:00;27.20;45.50
30304;DHT22;17112;48.636;10.152;2023-05-09T14:11:26;27.30;45.50
30304;DHT22;17112;48.636;10.152;2023-05-09T14:13:52;27.30;45.20
30304;DHT22;17112;48.636;10.152;2023-05-09T14:16:18;27.30;44.90
30304;DHT22;17112;48.636;10.152;2023-05-09T14:18:44;27.30;44.90
30304;DHT22;17112;48.636;10.152;2023-05-09T14:21:10;27.20;44.60
30304;DHT22;17112;48.636;10.152;2023-05-09T14:23:35;27.10;44.50
30304;DHT22;17112;48.636;10.152;2023-05-09T14:26:01;27.00;44.30
30304;DHT22;17112;48.636;10.152;2023-05-09T14:28:27;26.90;44.40
30304;DHT22;17112;48.636;10.152;2023-05-09T14:30:52;26.80;45.00
30304;DHT22;17112;48.636;10.152;2023-05-09T14:33:18;26.70;45.00
30304;DHT22;17112;48.636;10.152;2023-05-09T14:35:44;26.60;44.80
30304;DHT22;17112;48.636;10.152;2023-05-09T14:38:10;26.50;45.00
30304;DHT22;17112;48.636;10.152;2023-05-09T14:40:37;26.40;45.10
30304;DHT22;17112;48.636;10.152;2023-05-09T14:43:03;26.30;45.10
30304;DHT22;17112;48.636;10.152;2023-05-09T14:45:29;26.20;45.40
30304;DHT22;17112;48.636;10.152;2023-05-09T14:47:56;26.00;45.10
30304;DHT22;17112;48.636;10.152;2023-05-09T14:50:22;26.00;45.40
30304;DHT22;17112;48.636;10.152;2023-05-09T14:52:48;25.90;45.90
30304;DHT22;17112;48.636;10.152;2023-05-09T14:55:16;25.90;45.50
30304;DHT22;17112;48.636;10.152;2023-05-09T14:57:42;25.90;45.60
30304;DHT22;17112;48.636;10.152;2023-05-09T15:00:09;25.90;45.60
30304;DHT22;17112;48.636;10.152;2023-05-09T15:02:35;25.90;45.60
30304;DHT22;17112;48.636;10.152;2023-05-09T15:05:01;26.00;45.70
30304;DHT22;17112;48.636;10.152;2023-05-09T15:07:28;26.10;45.60
30304;DHT22;17112;48.636;10.152;2023-05-09T15:09:54;26.10;45.70
30304;DHT22;17112;48.636;10.152;2023-05-09T15:12:19;26.20;45.60
30304;DHT22;17112;48.636;10.152;2023-05-09T15:14:45;26.30;45.50
30304;DHT22;17112;48.636;10.152;2023-05-09T15:17:11;26.40;45.40
30304;DHT22;17112;48.636;10.152;2023-05-09T15:19:37;26.50;44.90
30304;DHT22;17112;48.636;10.152;2023-05-09T15:22:02;26.50;44.60
30304;DHT22;17112;48.636;10.152;2023-05-09T15:24:29;26.60;44.40
30304;DHT22;17112;48.636;10.152;2023-05-09T15:26:55;26.60;44.40
30304;DHT22;17112;48.636;10.152;2023-05-09T15:29:21;26.60;44.00
30304;DHT22;17112;48.636;10.152;2023-05-09T15:31:46;26.60;43.90